sensor_id;sensor_type;location;lat;lon;timestamp;temperature;humidity
53876;DHT22;39789;53.216;5.624;2022-12-18T00:01:01;-1.00;99.90
53876;DHT22;39789;53.216;5.624;2022-12-18T00:03:35;-1.30;99.90
53876;DHT22;39789;53.216;5.624;2022-12-18T00:06:00;-2.40;99.90
53876;DHT22;39789;53.216;5.624;2022-12-18T00:08:26;-1.10;99.90
53876;DHT22;39789;53.216;5.624;2022-12-18T00:10:52;-1.60;99.90
53876;DHT22;39789;53.216;5.624;2022-12-18T00:13:17;-1.10;99.90
53876;DHT22;39789;53.216;5.624;2022-12-18T00:15:43;-2.40;99.90
53876;DHT22;39789;53.216;5.624;2022-12-18T00:18:09;-1.60;99.90
53876;DHT22;39789;53.216;5.624;2022-12-18T00:20:38;-0.90;99.90
53876;DHT22;39789;53.216;5.624;2022-12-18T00:23:06;-1.70;99.90
53876;DHT22;39789;53.216;5.624;2022-12-18T00:25:35;-1.20;99.90
53876;DHT22;39789;53.216;5.624;2022-12-18T00:28:02;-2.40;99.90
53876;DHT22;39789;53.216;5.624;2022-12-18T00:30:28;-1.30;99.90
53876;DHT22;39789;53.216;5.624;2022-12-18T00:32:53;-2.30;99.90
53876;DHT22;39789;53.216;5.624;2022-12-18T00:35:19;-1.00;99.90
53876;DHT22;39789;53.216;5.624;2022-12-18T00:37:45;-1.20;99.90
53876;DHT22;39789;53.216;5.624;2022-12-18T00:40:11;-1.00;99.90
53876;DHT22;39789;53.216;5.624;2022-12-18T00:42:36;-2.40;99.90
53876;DHT22;39789;53.216;5.624;2022-12-18T00:45:25;-1.60;99.90
53876;DHT22;39789;53.216;5.624;2022-12-18T00:47:51;-2.40;99.90
53876;DHT22;39789;53.216;5.624;2022-12-18T00:50:16;-1.00;99.90
53876;DHT22;39789;53.216;5.624;2022-12-18T00:52:42;-2.40;99.90
53876;DHT22;39789;53.216;5.624;2022-12-18T00:55:08;-1.70;99.90
53876;DHT22;39789;53.216;5.624;2022-12-18T00:57:34;-2.40;99.90
53876;DHT22;39789;53.216;5.624;2022-12-18T01:00:00;-1.60;99.90
53876;DHT22;39789;53.216;5.624;2022-12-18T01:02:26;-1.20;99.90
53876;DHT22;39789;53.216;5.624;2022-12-18T01:04:51;-1.30;99.90
53876;DHT22;39789;53.216;5.624;2022-12-18T01:07:17;-2.00;99.90
53876;DHT22;39789;53.216;5.624;2022-12-18T01:09:42;-1.60;99.90
53876;DHT22;39789;53.216;5.624;2022-12-18T01:12:08;-1.70;99.90
53876;DHT22;39789;53.216;5.624;2022-12-18T01:14:33;-1.30;99.90
53876;DHT22;39789;53.216;5.624;2022-12-18T01:16:59;-1.00;99.90
53876;DHT22;39789;53.216;5.624;2022-12-18T01:19:25;-1.20;99.90
53876;DHT22;39789;53.216;5.624;2022-12-18T01:21:50;-1.10;99.90
53876;DHT22;39789;53.216;5.624;2022-12-18T01:24:16;-1.70;99.90
53876;DHT22;39789;53.216;5.624;2022-12-18T01:26:41;-1.20;99.90
53876;DHT22;39789;53.216;5.624;2022-12-18T01:29:07;-0.90;99.90
53876;DHT22;39789;53.216;5.624;2022-12-18T01:31:33;-1.90;99.90
53876;DHT22;39789;53.216;5.624;2022-12-18T01:34:03;-2.30;99.90
53876;DHT22;39789;53.216;5.624;2022-12-18T01:36:37;-2.40;99.90
53876;DHT22;39789;53.216;5.624;2022-12-18T01:39:09;-2.40;99.90
53876;DHT22;39789;53.216;5.624;2022-12-18T01:41:35;-2.40;99.90
53876;DHT22;39789;53.216;5.624;2022-12-18T01:45:39;-1.30;99.90
53876;DHT22;39789;53.216;5.624;2022-12-18T01:48:15;-2.40;99.90
53876;DHT22;39789;53.216;5.624;2022-12-18T01:50:42;-2.40;99.90
53876;DHT22;39789;53.216;5.624;2022-12-18T01:53:17;-1.80;99.90
53876;DHT22;39789;53.216;5.624;2022-12-18T01:55:48;-2.50;99.90
53876;DHT22;39789;53.216;5.624;2022-12-18T01:58:15;-2.50;99.90
53876;DHT22;39789;53.216;5.624;2022-12-18T02:00:41;-1.60;99.90
53876;DHT22;39789;53.216;5.624;2022-12-18T02:03:07;-2.70;99.90
53876;DHT22;39789;53.216;5.624;2022-12-18T02:08:38;-2.70;99.90
53876;DHT22;39789;53.216;5.624;2022-12-18T02:11:24;-2.60;99.90
53876;DHT22;39789;53.216;5.624;2022-12-18T02:14:19;-2.80;99.90
53876;DHT22;39789;53.216;5.624;2022-12-18T02:17:16;-2.90;99.90
53876;DHT22;39789;53.216;5.624;2022-12-18T02:20:01;-2.90;99.90
53876;DHT22;39789;53.216;5.624;2022-12-18T02:22:39;-2.90;99.90
53876;DHT22;39789;53.216;5.624;2022-12-18T02:27:46;-1.80;99.90
53876;DHT22;39789;53.216;5.624;2022-12-18T02:30:15;-1.90;99.90
53876;DHT22;39789;53.216;5.624;2022-12-18T02:32:46;-3.00;99.90
53876;DHT22;39789;53.216;5.624;2022-12-18T02:35:24;-3.00;99.90
53876;DHT22;39789;53.216;5.624;2022-12-18T02:37:54;-2.20;99.90
53876;DHT22;39789;53.216;5.624;2022-12-18T02:40:22;-3.10;99.90
53876;DHT22;39789;53.216;5.624;2022-12-18T02:42:48;-3.20;99.90
53876;DHT22;39789;53.216;5.624;2022-12-18T02:45:14;-3.20;99.90
53876;DHT22;39789;53.216;5.624;2022-12-18T02:47:43;-1.90;99.90
53876;DHT22;39789;53.216;5.624;2022-12-18T02:50:32;-3.20;99.90
53876;DHT22;39789;53.216;5.624;2022-12-18T02:53:33;-3.20;99.90
53876;DHT22;39789;53.216;5.624;2022-12-18T02:56:19;-3.20;99.90
53876;DHT22;39789;53.216;5.624;2022-12-18T02:59:01;-3.20;99.90
53876;DHT22;39789;53.216;5.624;2022-12-18T03:01:33;-3.20;99.90
53876;DHT22;39789;53.216;5.624;2022-12-18T03:04:24;-2.00;99.90
53876;DHT22;39789;53.216;5.624;2022-12-18T03:06:55;-3.40;99.90
53876;DHT22;39789;53.216;5.624;2022-12-18T03:09:27;-3.40;99.90
53876;DHT22;39789;53.216;5.624;2022-12-18T03:11:58;-3.50;99.90
53876;DHT22;39789;53.216;5.624;2022-12-18T03:14:50;-3.60;99.90
53876;DHT22;39789;53.216;5.624;2022-12-18T03:17:19;-3.70;99.90
53876;DHT22;39789;53.216;5.624;2022-12-18T03:19:46;-2.00;99.90
53876;DHT22;39789;53.216;5.624;2022-12-18T03:22:13;-3.70;99.90
53876;DHT22;39789;53.216;5.624;2022-12-18T03:24:41;-2.10;99.90
53876;DHT22;39789;53.216;5.624;2022-12-18T03:27:11;-2.50;99.90
53876;DHT22;39789;53.216;5.624;2022-12-18T03:29:47;-4.10;99.90
53876;DHT22;39789;53.216;5.624;2022-12-18T03:32:21;-4.10;99.90
53876;DHT22;39789;53.216;5.624;2022-12-18T03:34:51;-4.10;99.90
53876;DHT22;39789;53.216;5.624;2022-12-18T03:37:17;-2.40;99.90
53876;DHT22;39789;53.216;5.624;2022-12-18T03:39:43;-4.20;99.90
53876;DHT22;39789;53.216;5.624;2022-12-18T03:45:13;-4.20;99.90
53876;DHT22;39789;53.216;5.624;2022-12-18T03:48:03;-4.30;99.90
53876;DHT22;39789;53.216;5.624;2022-12-18T03:50:42;-4.30;99.90
53876;DHT22;39789;53.216;5.624;2022-12-18T03:55:45;-4.30;99.90
53876;DHT22;39789;53.216;5.624;2022-12-18T03:58:13;-4.40;99.90
53876;DHT22;39789;53.216;5.624;2022-12-18T04:00:41;-4.40;99.90
53876;DHT22;39789;53.216;5.624;2022-12-18T04:03:08;-4.40;99.90
53876;DHT22;39789;53.216;5.624;2022-12-18T04:05:35;-4.40;99.90
53876;DHT22;39789;53.216;5.624;2022-12-18T04:08:03;-3.50;99.90
53876;DHT22;39789;53.216;5.624;2022-12-18T04:10:29;-3.20;99.90
53876;DHT22;39789;53.216;5.624;2022-12-18T04:12:58;-4.50;99.90
53876;DHT22;39789;53.216;5.624;2022-12-18T04:15:24;-4.60;99.90
53876;DHT22;39789;53.216;5.624;2022-12-18T04:17:50;-4.60;99.90
53876;DHT22;39789;53.216;5.624;2022-12-18T04:20:16;-4.60;99.90
53876;DHT22;39789;53.216;5.624;2022-12-18T04:22:42;-4.60;99.90
53876;DHT22;39789;53.216;5.624;2022-12-18T04:25:08;-2.90;99.90
53876;DHT22;39789;53.216;5.624;2022-12-18T04:27:36;-4.60;99.90
53876;DHT22;39789;53.216;5.624;2022-12-18T04:30:02;-4.70;99.90
53876;DHT22;39789;53.216;5.624;2022-12-18T04:32:28;-4.60;99.90
53876;DHT22;39789;53.216;5.624;2022-12-18T04:34:53;-3.90;99.90
53876;DHT22;39789;53.216;5.624;2022-12-18T04:37:19;-4.70;99.90
53876;DHT22;39789;53.216;5.624;2022-12-18T04:39:44;-3.50;99.90
53876;DHT22;39789;53.216;5.624;2022-12-18T04:42:10;-4.70;99.90
53876;DHT22;39789;53.216;5.624;2022-12-18T04:44:36;-4.70;99.90
53876;DHT22;39789;53.216;5.624;2022-12-18T04:47:02;-2.90;99.90
53876;DHT22;39789;53.216;5.624;2022-12-18T04:49:27;-3.50;99.90
53876;DHT22;39789;53.216;5.624;2022-12-18T04:51:53;-4.90;99.90
53876;DHT22;39789;53.216;5.624;2022-12-18T04:54:18;-4.80;99.90
53876;DHT22;39789;53.216;5.624;2022-12-18T04:56:44;-3.20;99.90
53876;DHT22;39789;53.216;5.624;2022-12-18T04:59:09;-4.80;99.90
53876;DHT22;39789;53.216;5.624;2022-12-18T05:01:35;-4.80;99.90
53876;DHT22;39789;53.216;5.624;2022-12-18T05:04:01;-4.90;99.90
53876;DHT22;39789;53.216;5.624;2022-12-18T05:06:27;-4.90;99.90
53876;DHT22;39789;53.216;5.624;2022-12-18T05:08:52;-2.90;99.90
53876;DHT22;39789;53.216;5.624;2022-12-18T05:11:18;-4.90;99.90
53876;DHT22;39789;53.216;5.624;2022-12-18T05:13:44;-4.90;99.90
53876;DHT22;39789;53.216;5.624;2022-12-18T05:16:11;-4.90;99.90
53876;DHT22;39789;53.216;5.624;2022-12-18T05:18:37;-4.90;99.90
53876;DHT22;39789;53.216;5.624;2022-12-18T05:21:03;-4.80;99.90
53876;DHT22;39789;53.216;5.624;2022-12-18T05:23:29;-4.80;99.90
53876;DHT22;39789;53.216;5.624;2022-12-18T05:25:58;-4.90;99.90
53876;DHT22;39789;53.216;5.624;2022-12-18T05:28:26;-4.90;99.90
53876;DHT22;39789;53.216;5.624;2022-12-18T05:30:55;-2.70;99.90
53876;DHT22;39789;53.216;5.624;2022-12-18T05:33:22;-5.00;99.90
53876;DHT22;39789;53.216;5.624;2022-12-18T05:35:56;-5.00;99.90
53876;DHT22;39789;53.216;5.624;2022-12-18T05:38:23;-5.00;99.90
53876;DHT22;39789;53.216;5.624;2022-12-18T05:40:49;-2.80;99.90
53876;DHT22;39789;53.216;5.624;2022-12-18T05:43:15;-5.10;99.90
53876;DHT22;39789;53.216;5.624;2022-12-18T05:45:41;-5.20;99.90
53876;DHT22;39789;53.216;5.624;2022-12-18T05:48:15;-5.20;99.90
53876;DHT22;39789;53.216;5.624;2022-12-18T05:50:43;-5.20;99.90
53876;DHT22;39789;53.216;5.624;2022-12-18T05:53:11;-5.20;99.90
53876;DHT22;39789;53.216;5.624;2022-12-18T05:55:38;-5.20;99.90
53876;DHT22;39789;53.216;5.624;2022-12-18T05:58:05;-5.20;99.90
53876;DHT22;39789;53.216;5.624;2022-12-18T06:00:32;-5.20;99.90
53876;DHT22;39789;53.216;5.624;2022-12-18T06:02:59;-5.20;99.90
53876;DHT22;39789;53.216;5.624;2022-12-18T06:05:25;-5.20;99.90
53876;DHT22;39789;53.216;5.624;2022-12-18T06:07:51;-3.80;99.90
53876;DHT22;39789;53.216;5.624;2022-12-18T06:10:17;-3.50;99.90
53876;DHT22;39789;53.216;5.624;2022-12-18T06:12:42;-4.10;99.90
53876;DHT22;39789;53.216;5.624;2022-12-18T06:15:08;-5.10;99.90
53876;DHT22;39789;53.216;5.624;2022-12-18T06:17:34;-5.10;99.90
53876;DHT22;39789;53.216;5.624;2022-12-18T06:20:00;-5.20;99.90
53876;DHT22;39789;53.216;5.624;2022-12-18T06:22:27;-5.20;99.90
53876;DHT22;39789;53.216;5.624;2022-12-18T06:24:52;-5.20;99.90
53876;DHT22;39789;53.216;5.624;2022-12-18T06:27:18;-5.20;99.90
53876;DHT22;39789;53.216;5.624;2022-12-18T06:29:43;-3.70;99.90
53876;DHT22;39789;53.216;5.624;2022-12-18T06:32:09;-5.20;99.90
53876;DHT22;39789;53.216;5.624;2022-12-18T06:34:37;-5.20;99.90
53876;DHT22;39789;53.216;5.624;2022-12-18T06:37:03;-5.20;99.90
53876;DHT22;39789;53.216;5.624;2022-12-18T06:39:29;-5.20;99.90
53876;DHT22;39789;53.216;5.624;2022-12-18T06:41:54;-5.20;99.90
53876;DHT22;39789;53.216;5.624;2022-12-18T06:44:20;-3.40;99.90
53876;DHT22;39789;53.216;5.624;2022-12-18T06:46:45;-5.30;99.90
53876;DHT22;39789;53.216;5.624;2022-12-18T06:49:11;-5.30;99.90
53876;DHT22;39789;53.216;5.624;2022-12-18T06:51:37;-5.30;99.90
53876;DHT22;39789;53.216;5.624;2022-12-18T06:54:03;-5.30;99.90
53876;DHT22;39789;53.216;5.624;2022-12-18T06:56:29;-5.30;99.90
53876;DHT22;39789;53.216;5.624;2022-12-18T06:58:54;-5.30;99.90
53876;DHT22;39789;53.216;5.624;2022-12-18T07:01:21;-5.40;99.90
53876;DHT22;39789;53.216;5.624;2022-12-18T07:03:47;-5.40;99.90
53876;DHT22;39789;53.216;5.624;2022-12-18T07:06:18;-5.50;99.90
53876;DHT22;39789;53.216;5.624;2022-12-18T07:08:44;-4.10;99.90
53876;DHT22;39789;53.216;5.624;2022-12-18T07:11:10;-5.50;99.90
53876;DHT22;39789;53.216;5.624;2022-12-18T07:13:36;-5.40;99.90
53876;DHT22;39789;53.216;5.624;2022-12-18T07:19:11;-5.40;99.90
53876;DHT22;39789;53.216;5.624;2022-12-18T07:21:37;-5.40;99.90
53876;DHT22;39789;53.216;5.624;2022-12-18T07:24:02;-3.20;99.90
53876;DHT22;39789;53.216;5.624;2022-12-18T07:26:28;-5.40;99.90
53876;DHT22;39789;53.216;5.624;2022-12-18T07:28:57;-5.50;99.90
53876;DHT22;39789;53.216;5.624;2022-12-18T07:31:23;-5.50;99.90
53876;DHT22;39789;53.216;5.624;2022-12-18T07:33:49;-5.50;99.90
53876;DHT22;39789;53.216;5.624;2022-12-18T07:36:15;-3.60;99.90
53876;DHT22;39789;53.216;5.624;2022-12-18T07:38:41;-5.40;99.90
53876;DHT22;39789;53.216;5.624;2022-12-18T07:41:10;-4.20;99.90
53876;DHT22;39789;53.216;5.624;2022-12-18T07:43:37;-5.40;99.90
53876;DHT22;39789;53.216;5.624;2022-12-18T07:46:03;-5.40;99.90
53876;DHT22;39789;53.216;5.624;2022-12-18T07:48:29;-5.50;99.90
53876;DHT22;39789;53.216;5.624;2022-12-18T07:51:05;-5.40;99.90
53876;DHT22;39789;53.216;5.624;2022-12-18T07:53:32;-5.40;99.90
53876;DHT22;39789;53.216;5.624;2022-12-18T07:55:59;-5.40;99.90
53876;DHT22;39789;53.216;5.624;2022-12-18T07:58:26;-5.40;99.90
53876;DHT22;39789;53.216;5.624;2022-12-18T08:00:51;-5.40;99.90
53876;DHT22;39789;53.216;5.624;2022-12-18T08:03:18;-5.30;99.90
53876;DHT22;39789;53.216;5.624;2022-12-18T08:05:43;-5.30;99.90
53876;DHT22;39789;53.216;5.624;2022-12-18T08:08:09;-5.30;99.90
53876;DHT22;39789;53.216;5.624;2022-12-18T08:10:35;-3.40;99.90
53876;DHT22;39789;53.216;5.624;2022-12-18T08:13:00;-5.50;99.90
53876;DHT22;39789;53.216;5.624;2022-12-18T08:15:26;-5.20;99.90
53876;DHT22;39789;53.216;5.624;2022-12-18T08:17:51;-5.20;99.90
53876;DHT22;39789;53.216;5.624;2022-12-18T08:20:17;-5.10;99.90
53876;DHT22;39789;53.216;5.624;2022-12-18T08:22:44;-5.00;99.90
53876;DHT22;39789;53.216;5.624;2022-12-18T08:25:09;-5.00;99.90
53876;DHT22;39789;53.216;5.624;2022-12-18T08:27:35;-4.90;99.90
53876;DHT22;39789;53.216;5.624;2022-12-18T08:30:01;-4.90;99.90
53876;DHT22;39789;53.216;5.624;2022-12-18T08:32:28;-4.90;99.90
53876;DHT22;39789;53.216;5.624;2022-12-18T08:34:53;-4.80;99.90
53876;DHT22;39789;53.216;5.624;2022-12-18T08:37:19;-4.80;99.90
53876;DHT22;39789;53.216;5.624;2022-12-18T08:39:45;-4.80;99.90
53876;DHT22;39789;53.216;5.624;2022-12-18T08:45:37;-4.60;99.90
53876;DHT22;39789;53.216;5.624;2022-12-18T08:48:03;-4.60;99.90
53876;DHT22;39789;53.216;5.624;2022-12-18T08:50:28;-3.60;99.90
53876;DHT22;39789;53.216;5.624;2022-12-18T08:52:54;-4.50;99.90
53876;DHT22;39789;53.216;5.624;2022-12-18T08:55:19;-4.40;99.90
53876;DHT22;39789;53.216;5.624;2022-12-18T08:57:48;-4.40;99.90
53876;DHT22;39789;53.216;5.624;2022-12-18T09:00:15;-4.30;99.90
53876;DHT22;39789;53.216;5.624;2022-12-18T09:02:40;-4.20;99.90
53876;DHT22;39789;53.216;5.624;2022-12-18T09:05:06;-4.20;99.90
53876;DHT22;39789;53.216;5.624;2022-12-18T09:07:32;-4.20;99.90
53876;DHT22;39789;53.216;5.624;2022-12-18T09:09:57;-4.10;99.90
53876;DHT22;39789;53.216;5.624;2022-12-18T09:12:23;-4.10;99.90
53876;DHT22;39789;53.216;5.624;2022-12-18T09:14:48;-2.90;99.90
53876;DHT22;39789;53.216;5.624;2022-12-18T09:17:14;-3.90;99.90
53876;DHT22;39789;53.216;5.624;2022-12-18T09:19:39;-3.90;99.90
53876;DHT22;39789;53.216;5.624;2022-12-18T09:22:05;-3.80;99.90
53876;DHT22;39789;53.216;5.624;2022-12-18T09:24:31;-3.80;99.90
53876;DHT22;39789;53.216;5.624;2022-12-18T09:26:56;-3.70;99.90
53876;DHT22;39789;53.216;5.624;2022-12-18T09:29:22;-3.70;99.90
53876;DHT22;39789;53.216;5.624;2022-12-18T09:31:47;-3.60;99.90
53876;DHT22;39789;53.216;5.624;2022-12-18T09:34:15;-3.60;99.90
53876;DHT22;39789;53.216;5.624;2022-12-18T09:36:40;-3.50;99.90
53876;DHT22;39789;53.216;5.624;2022-12-18T09:39:06;-3.50;99.90
53876;DHT22;39789;53.216;5.624;2022-12-18T09:41:34;-3.50;99.90
53876;DHT22;39789;53.216;5.624;2022-12-18T09:47:05;-3.40;99.90
53876;DHT22;39789;53.216;5.624;2022-12-18T09:49:37;-3.30;99.90
53876;DHT22;39789;53.216;5.624;2022-12-18T09:52:12;-3.20;99.90
53876;DHT22;39789;53.216;5.624;2022-12-18T09:54:41;-3.10;99.90
53876;DHT22;39789;53.216;5.624;2022-12-18T09:57:14;-3.00;99.90
53876;DHT22;39789;53.216;5.624;2022-12-18T09:59:42;-2.90;99.90
53876;DHT22;39789;53.216;5.624;2022-12-18T10:02:20;-2.90;99.90
53876;DHT22;39789;53.216;5.624;2022-12-18T10:05:02;-2.80;99.90
53876;DHT22;39789;53.216;5.624;2022-12-18T10:07:59;-2.70;99.90
53876;DHT22;39789;53.216;5.624;2022-12-18T10:16:19;-2.50;99.90
53876;DHT22;39789;53.216;5.624;2022-12-18T10:19:18;-2.50;99.90
53876;DHT22;39789;53.216;5.624;2022-12-18T10:24:53;-2.30;99.90
53876;DHT22;39789;53.216;5.624;2022-12-18T10:27:24;-2.30;99.90
53876;DHT22;39789;53.216;5.624;2022-12-18T10:29:50;-1.00;99.90
53876;DHT22;39789;53.216;5.624;2022-12-18T10:32:21;-0.90;99.90
53876;DHT22;39789;53.216;5.624;2022-12-18T10:34:49;-2.20;99.90
53876;DHT22;39789;53.216;5.624;2022-12-18T10:37:17;-1.90;99.90
53876;DHT22;39789;53.216;5.624;2022-12-18T10:39:44;-1.60;99.90
53876;DHT22;39789;53.216;5.624;2022-12-18T10:42:18;-2.00;99.90
53876;DHT22;39789;53.216;5.624;2022-12-18T10:44:45;-1.80;99.90
53876;DHT22;39789;53.216;5.624;2022-12-18T10:47:15;-1.80;99.90
53876;DHT22;39789;53.216;5.624;2022-12-18T10:49:50;-1.80;99.90
53876;DHT22;39789;53.216;5.624;2022-12-18T10:55:58;-1.70;99.90
53876;DHT22;39789;53.216;5.624;2022-12-18T11:02:34;-1.60;99.90
53876;DHT22;39789;53.216;5.624;2022-12-18T11:05:01;-1.50;99.90
53876;DHT22;39789;53.216;5.624;2022-12-18T11:11:20;-1.40;99.90
53876;DHT22;39789;53.216;5.624;2022-12-18T11:14:02;-1.40;99.90
53876;DHT22;39789;53.216;5.624;2022-12-18T11:16:32;-1.40;99.90
53876;DHT22;39789;53.216;5.624;2022-12-18T11:19:37;-0.10;99.90
53876;DHT22;39789;53.216;5.624;2022-12-18T11:22:35;-1.40;99.90
53876;DHT22;39789;53.216;5.624;2022-12-18T11:25:22;-1.40;99.90
53876;DHT22;39789;53.216;5.624;2022-12-18T11:27:56;-1.30;99.90
53876;DHT22;39789;53.216;5.624;2022-12-18T11:36:45;-1.30;99.90
53876;DHT22;39789;53.216;5.624;2022-12-18T11:39:36;-1.30;99.90
53876;DHT22;39789;53.216;5.624;2022-12-18T11:44:58;-1.30;99.90
53876;DHT22;39789;53.216;5.624;2022-12-18T11:53:02;-1.40;99.90
53876;DHT22;39789;53.216;5.624;2022-12-18T12:04:47;-1.30;99.90
53876;DHT22;39789;53.216;5.624;2022-12-18T12:07:30;-1.20;99.90
53876;DHT22;39789;53.216;5.624;2022-12-18T12:12:58;-1.20;99.90
53876;DHT22;39789;53.216;5.624;2022-12-18T12:27:06;-1.00;99.90
53876;DHT22;39789;53.216;5.624;2022-12-18T12:32:44;-1.00;99.90
53876;DHT22;39789;53.216;5.624;2022-12-18T12:35:22;-0.90;99.90
53876;DHT22;39789;53.216;5.624;2022-12-18T12:40:34;-0.90;99.90
53876;DHT22;39789;53.216;5.624;2022-12-18T12:43:20;-0.20;99.90
53876;DHT22;39789;53.216;5.624;2022-12-18T12:46:07;-0.90;99.90
53876;DHT22;39789;53.216;5.624;2022-12-18T12:52:19;-0.90;99.90
53876;DHT22;39789;53.216;5.624;2022-12-18T12:54:48;-0.30;99.90
53876;DHT22;39789;53.216;5.624;2022-12-18T13:02:39;-0.90;99.90
53876;DHT22;39789;53.216;5.624;2022-12-18T13:07:42;-0.80;99.90
53876;DHT22;39789;53.216;5.624;2022-12-18T13:15:33;-0.80;99.90
53876;DHT22;39789;53.216;5.624;2022-12-18T13:20:37;-0.80;99.90
53876;DHT22;39789;53.216;5.624;2022-12-18T13:25:44;-0.80;99.90
53876;DHT22;39789;53.216;5.624;2022-12-18T13:28:20;0.40;99.90
53876;DHT22;39789;53.216;5.624;2022-12-18T13:30:50;-0.80;99.90
53876;DHT22;39789;53.216;5.624;2022-12-18T13:43:27;-0.80;99.90
53876;DHT22;39789;53.216;5.624;2022-12-18T13:46:02;-0.70;99.90
53876;DHT22;39789;53.216;5.624;2022-12-18T13:48:36;-0.80;99.90
53876;DHT22;39789;53.216;5.624;2022-12-18T13:51:09;-0.70;99.90
53876;DHT22;39789;53.216;5.624;2022-12-18T13:53:44;0.20;99.90
53876;DHT22;39789;53.216;5.624;2022-12-18T13:56:21;-0.10;99.90
53876;DHT22;39789;53.216;5.624;2022-12-18T13:59:14;0.10;99.90
53876;DHT22;39789;53.216;5.624;2022-12-18T14:01:56;-0.80;99.90
53876;DHT22;39789;53.216;5.624;2022-12-18T14:04:30;-0.80;99.90
53876;DHT22;39789;53.216;5.624;2022-12-18T14:06:57;-0.90;99.90
53876;DHT22;39789;53.216;5.624;2022-12-18T14:09:29;0.30;99.90
53876;DHT22;39789;53.216;5.624;2022-12-18T14:11:55;-0.90;99.90
53876;DHT22;39789;53.216;5.624;2022-12-18T14:14:44;0.20;99.90
53876;DHT22;39789;53.216;5.624;2022-12-18T14:20:59;-1.00;99.90
53876;DHT22;39789;53.216;5.624;2022-12-18T14:23:34;-1.10;99.90
53876;DHT22;39789;53.216;5.624;2022-12-18T14:26:01;-1.10;99.90
53876;DHT22;39789;53.216;5.624;2022-12-18T14:28:28;0.60;99.90
53876;DHT22;39789;53.216;5.624;2022-12-18T14:30:54;-1.10;99.90
53876;DHT22;39789;53.216;5.624;2022-12-18T14:33:26;-0.10;99.90
53876;DHT22;39789;53.216;5.624;2022-12-18T14:36:00;-1.00;99.90
53876;DHT22;39789;53.216;5.624;2022-12-18T14:38:38;-0.30;99.90
53876;DHT22;39789;53.216;5.624;2022-12-18T14:41:11;-0.50;99.90
53876;DHT22;39789;53.216;5.624;2022-12-18T14:43:40;-1.20;99.90
53876;DHT22;39789;53.216;5.624;2022-12-18T14:46:28;-1.20;99.90
53876;DHT22;39789;53.216;5.624;2022-12-18T14:48:55;-1.20;99.90
53876;DHT22;39789;53.216;5.624;2022-12-18T14:51:23;-1.20;99.90
53876;DHT22;39789;53.216;5.624;2022-12-18T14:54:01;-1.30;99.90
53876;DHT22;39789;53.216;5.624;2022-12-18T14:56:33;-1.30;99.90
53876;DHT22;39789;53.216;5.624;2022-12-18T14:59:01;-1.30;99.90
53876;DHT22;39789;53.216;5.624;2022-12-18T15:01:39;-0.70;99.90
53876;DHT22;39789;53.216;5.624;2022-12-18T15:04:39;-1.30;99.90
53876;DHT22;39789;53.216;5.624;2022-12-18T15:07:21;0.30;99.90
53876;DHT22;39789;53.216;5.624;2022-12-18T15:10:07;0.10;99.90
53876;DHT22;39789;53.216;5.624;2022-12-18T15:12:50;0.30;99.90
53876;DHT22;39789;53.216;5.624;2022-12-18T15:20:53;-1.40;99.90
53876;DHT22;39789;53.216;5.624;2022-12-18T15:26:01;-1.30;99.90
53876;DHT22;39789;53.216;5.624;2022-12-18T15:31:05;-1.30;99.90
53876;DHT22;39789;53.216;5.624;2022-12-18T15:33:34;-0.40;99.90
53876;DHT22;39789;53.216;5.624;2022-12-18T15:36:04;-0.70;99.90
53876;DHT22;39789;53.216;5.624;2022-12-18T15:38:31;-1.30;99.90
53876;DHT22;39789;53.216;5.624;2022-12-18T15:40:57;0.20;99.90
53876;DHT22;39789;53.216;5.624;2022-12-18T15:43:24;-0.70;99.90
53876;DHT22;39789;53.216;5.624;2022-12-18T15:46:06;0.20;99.90
53876;DHT22;39789;53.216;5.624;2022-12-18T15:48:34;0.00;99.90
53876;DHT22;39789;53.216;5.624;2022-12-18T15:51:01;-1.30;99.90
53876;DHT22;39789;53.216;5.624;2022-12-18T15:53:32;-2.60;99.90
53876;DHT22;39789;53.216;5.624;2022-12-18T15:55:58;-0.50;99.90
53876;DHT22;39789;53.216;5.624;2022-12-18T15:58:42;-0.60;99.90
53876;DHT22;39789;53.216;5.624;2022-12-18T16:01:09;-0.80;99.90
53876;DHT22;39789;53.216;5.624;2022-12-18T16:03:36;0.00;99.90
53876;DHT22;39789;53.216;5.624;2022-12-18T16:06:01;-0.50;99.90
53876;DHT22;39789;53.216;5.624;2022-12-18T16:08:28;-1.10;99.90
53876;DHT22;39789;53.216;5.624;2022-12-18T16:10:57;-0.90;99.90
53876;DHT22;39789;53.216;5.624;2022-12-18T16:13:23;-0.30;99.90
53876;DHT22;39789;53.216;5.624;2022-12-18T16:15:49;0.10;99.90
53876;DHT22;39789;53.216;5.624;2022-12-18T16:21:57;-0.90;99.90
53876;DHT22;39789;53.216;5.624;2022-12-18T16:24:25;0.00;99.90
53876;DHT22;39789;53.216;5.624;2022-12-18T16:26:52;-0.60;99.90
53876;DHT22;39789;53.216;5.624;2022-12-18T16:29:18;-0.90;99.90
53876;DHT22;39789;53.216;5.624;2022-12-18T16:31:44;-1.00;99.90
53876;DHT22;39789;53.216;5.624;2022-12-18T16:34:17;-0.10;99.90
53876;DHT22;39789;53.216;5.624;2022-12-18T16:36:44;-0.90;99.90
53876;DHT22;39789;53.216;5.624;2022-12-18T16:39:10;0.40;99.90
53876;DHT22;39789;53.216;5.624;2022-12-18T16:41:35;-0.70;99.90
53876;DHT22;39789;53.216;5.624;2022-12-18T16:44:01;-0.90;99.90
53876;DHT22;39789;53.216;5.624;2022-12-18T16:46:27;-0.10;99.90
53876;DHT22;39789;53.216;5.624;2022-12-18T16:48:52;-0.10;99.90
53876;DHT22;39789;53.216;5.624;2022-12-18T16:51:18;-0.80;99.90
53876;DHT22;39789;53.216;5.624;2022-12-18T16:53:43;-0.30;99.90
53876;DHT22;39789;53.216;5.624;2022-12-18T16:56:09;-0.70;99.90
53876;DHT22;39789;53.216;5.624;2022-12-18T16:58:35;-0.70;99.90
53876;DHT22;39789;53.216;5.624;2022-12-18T17:01:00;-0.50;99.90
53876;DHT22;39789;53.216;5.624;2022-12-18T17:03:29;0.20;99.90
53876;DHT22;39789;53.216;5.624;2022-12-18T17:05:54;0.70;99.90
53876;DHT22;39789;53.216;5.624;2022-12-18T17:08:20;-0.20;99.90
53876;DHT22;39789;53.216;5.624;2022-12-18T17:10:45;0.20;99.90
53876;DHT22;39789;53.216;5.624;2022-12-18T17:13:11;0.70;99.90
53876;DHT22;39789;53.216;5.624;2022-12-18T17:15:37;-0.50;99.90
53876;DHT22;39789;53.216;5.624;2022-12-18T17:18:03;-0.50;99.90
53876;DHT22;39789;53.216;5.624;2022-12-18T17:20:31;-0.60;99.90
53876;DHT22;39789;53.216;5.624;2022-12-18T17:26:16;-0.40;99.90
53876;DHT22;39789;53.216;5.624;2022-12-18T17:28:42;0.80;99.90
53876;DHT22;39789;53.216;5.624;2022-12-18T17:31:19;-0.40;99.90
53876;DHT22;39789;53.216;5.624;2022-12-18T17:33:44;-0.40;99.90
53876;DHT22;39789;53.216;5.624;2022-12-18T17:36:10;0.80;99.90
53876;DHT22;39789;53.216;5.624;2022-12-18T17:38:37;0.10;99.90
53876;DHT22;39789;53.216;5.624;2022-12-18T17:41:08;0.50;99.90
53876;DHT22;39789;53.216;5.624;2022-12-18T17:43:34;0.30;99.90
53876;DHT22;39789;53.216;5.624;2022-12-18T17:46:05;-0.40;99.90
53876;DHT22;39789;53.216;5.624;2022-12-18T17:48:31;0.80;99.90
53876;DHT22;39789;53.216;5.624;2022-12-18T17:51:05;0.60;99.90
53876;DHT22;39789;53.216;5.624;2022-12-18T17:53:31;-0.30;99.90
53876;DHT22;39789;53.216;5.624;2022-12-18T17:55:58;0.90;99.90
53876;DHT22;39789;53.216;5.624;2022-12-18T17:58:28;0.30;99.90
53876;DHT22;39789;53.216;5.624;2022-12-18T18:00:54;-0.30;99.90
53876;DHT22;39789;53.216;5.624;2022-12-18T18:03:20;0.20;99.90
53876;DHT22;39789;53.216;5.624;2022-12-18T18:05:45;0.60;99.90
53876;DHT22;39789;53.216;5.624;2022-12-18T18:08:11;-0.30;99.90